Time;durP1;ratioP1;P1;durP2;ratioP2;P2;SDS_P1;SDS_P2;PMS_P1;PMS_P2;Temp;Humidity;BMP_temperature;BMP_pressure;BME280_temperature;BME280_humidity;BME280_pressure;Samples;Min_cycle;Max_cycle;Signal;HPM_P1;HPM_P2
2021/11/08 00:01:07;;;;;;;4.00;3.70;;;;;;;;;;4952127;28;20031;-76
2021/11/08 00:03:35;;;;;;;2.17;2.08;;;;;;;;;;4956069;29;20420;-78
2021/11/08 00:06:04;;;;;;;4.80;3.20;;;;;;;;;;4956394;29;20114;-76
2021/11/08 00:08:30;;;;;;;3.17;2.95;;;;;;;;;;4954421;29;20047;-77
2021/11/08 00:10:56;;;;;;;3.55;3.25;;;;;;;;;;4939143;29;20114;-76
2021/11/08 00:13:22;;;;;;;4.22;3.85;;;;;;;;;;4956149;29;20051;-77
2021/11/08 00:18:43;;;;;;;2.80;2.60;;;;;;;;;;4954320;29;20039;-76
2021/11/08 00:21:00;;;;;;;3.75;2.85;;;;;;;;;;4955761;29;20523;-77
2021/11/08 00:23:27;;;;;;;3.38;2.95;;;;;;;;;;4938112;29;20146;-76
2021/11/08 00:25:54;;;;;;;3.90;3.13;;;;;;;;;;4938799;29;20150;-75
2021/11/08 00:28:20;;;;;;;3.20;3.00;;;;;;;;;;4956034;29;20085;-76
2021/11/08 00:30:49;;;;;;;3.22;2.95;;;;;;;;;;4955521;29;20043;-76
2021/11/08 00:33:16;;;;;;;3.30;3.10;;;;;;;;;;4955849;29;20047;-75
2021/11/08 00:35:54;;;;;;;3.42;3.13;;;;;;;;;;4955282;29;20074;-77
2021/11/08 00:38:20;;;;;;;5.15;3.08;;;;;;;;;;4953263;29;20061;-76
2021/11/08 00:40:46;;;;;;;5.55;5.05;;;;;;;;;;4955764;29;20456;-76
2021/11/08 00:43:13;;;;;;;3.45;3.17;;;;;;;;;;4955660;29;20034;-76
2021/11/08 00:45:38;;;;;;;3.03;2.80;;;;;;;;;;4954932;29;20051;-75
2021/11/08 00:48:05;;;;;;;4.63;3.80;;;;;;;;;;4955483;29;20039;-76
2021/11/08 00:50:32;;;;;;;2.95;2.75;;;;;;;;;;4955545;29;20117;-76
2021/11/08 00:52:57;;;;;;;3.70;3.50;;;;;;;;;;4955156;29;20046;-77
2021/11/08 00:55:25;;;;;;;3.63;3.17;;;;;;;;;;4954875;28;20047;-77
2021/11/08 00:57:53;;;;;;;5.70;3.40;;;;;;;;;;4955470;28;20043;-78
2021/11/08 01:00:19;;;;;;;3.55;3.33;;;;;;;;;;4951073;28;20051;-78
2021/11/08 01:02:45;;;;;;;4.30;3.35;;;;;;;;;;4955009;28;20070;-76
2021/11/08 01:05:15;;;;;;;3.55;2.65;;;;;;;;;;4955173;28;20813;-77
2021/11/08 01:07:41;;;;;;;3.22;3.03;;;;;;;;;;4934409;29;20528;-76
2021/11/08 01:10:11;;;;;;;3.78;3.47;;;;;;;;;;4936212;29;20039;-76
2021/11/08 01:12:37;;;;;;;3.88;2.42;;;;;;;;;;4935538;29;20047;-77
2021/11/08 01:15:05;;;;;;;3.13;2.97;;;;;;;;;;4935280;29;20055;-76
2021/11/08 01:17:31;;;;;;;3.10;2.90;;;;;;;;;;4919013;29;20492;-77
2021/11/08 01:19:56;;;;;;;4.63;3.38;;;;;;;;;;4936175;29;20478;-77
2021/11/08 01:22:22;;;;;;;3.22;2.97;;;;;;;;;;4936052;29;20047;-78
2021/11/08 01:24:52;;;;;;;2.80;2.70;;;;;;;;;;4936130;29;20048;-75
2021/11/08 01:27:20;;;;;;;3.25;3.05;;;;;;;;;;4936169;29;20505;-76
2021/11/08 01:29:45;;;;;;;2.47;2.38;;;;;;;;;;4935923;29;20402;-76
2021/11/08 01:32:11;;;;;;;4.00;3.72;;;;;;;;;;4935647;29;20099;-77
2021/11/08 01:34:37;;;;;;;5.15;4.85;;;;;;;;;;4918826;29;20051;-76
2021/11/08 01:37:04;;;;;;;2.63;2.53;;;;;;;;;;4935415;29;20055;-77
2021/11/08 01:39:36;;;;;;;2.95;2.75;;;;;;;;;;4935457;29;20087;-77
2021/11/08 01:42:06;;;;;;;3.58;3.38;;;;;;;;;;4935581;29;20043;-77
2021/11/08 01:44:31;;;;;;;;;;;;;;;;;;4936116;29;20109;-76
2021/11/08 01:46:59;;;;;;;3.47;3.17;;;;;;;;;;4935430;29;20372;-77
2021/11/08 01:49:25;;;;;;;2.97;2.78;;;;;;;;;;4935415;29;20039;-77
2021/11/08 01:51:51;;;;;;;3.38;3.15;;;;;;;;;;4935446;29;20070;-77
2021/11/08 01:54:18;;;;;;;3.40;3.05;;;;;;;;;;4935667;29;20055;-77
2021/11/08 01:56:45;;;;;;;3.33;3.13;;;;;;;;;;4935325;29;20044;-77
2021/11/08 01:59:11;;;;;;;3.67;3.38;;;;;;;;;;4935283;29;20058;-77
2021/11/08 02:01:38;;;;;;;3.30;3.03;;;;;;;;;;4935521;29;20606;-77
2021/11/08 02:04:03;;;;;;;3.05;2.85;;;;;;;;;;4935208;29;20079;-77
2021/11/08 02:06:29;;;;;;;4.50;3.55;;;;;;;;;;4934913;29;20071;-76
2021/11/08 02:08:55;;;;;;;3.63;3.33;;;;;;;;;;4935078;29;20044;-77
2021/11/08 02:11:21;;;;;;;4.30;4.00;;;;;;;;;;4935678;29;20039;-78
2021/11/08 02:13:50;;;;;;;3.15;2.95;;;;;;;;;;4935149;29;20663;-76
2021/11/08 02:16:16;;;;;;;3.15;2.97;;;;;;;;;;4934741;29;20035;-76
2021/11/08 02:18:41;;;;;;;3.15;2.90;;;;;;;;;;4933844;29;20046;-76
2021/11/08 02:21:09;;;;;;;3.72;3.35;;;;;;;;;;4934733;29;20524;-76
2021/11/08 02:23:40;;;;;;;3.00;2.75;;;;;;;;;;4933585;29;20147;-77
2021/11/08 02:26:10;;;;;;;3.50;3.30;;;;;;;;;;4934634;29;20106;-77
2021/11/08 02:28:37;;;;;;;5.60;3.30;;;;;;;;;;4933578;29;20047;-77
2021/11/08 02:31:03;;;;;;;3.72;3.53;;;;;;;;;;4933419;29;20050;-76
2021/11/08 02:33:28;;;;;;;2.90;2.80;;;;;;;;;;4934478;29;20047;-78
2021/11/08 02:35:56;;;;;;;2.05;1.95;;;;;;;;;;4934714;29;20421;-75
2021/11/08 02:38:29;;;;;;;4.07;2.92;;;;;;;;;;4935097;29;20528;-78
2021/11/08 02:40:58;;;;;;;4.22;4.03;;;;;;;;;;4917490;29;20043;-76
2021/11/08 02:43:25;;;;;;;3.05;2.95;;;;;;;;;;4934650;29;20059;-76
2021/11/08 02:46:20;;;;;;;3.17;2.97;;;;;;;;;;4934570;29;20043;-76
2021/11/08 02:48:45;;;;;;;3.22;3.03;;;;;;;;;;4933952;29;20501;-77
2021/11/08 02:53:39;;;;;;;2.97;2.83;;;;;;;;;;4934490;29;20043;-77
2021/11/08 02:56:07;;;;;;;3.50;3.30;;;;;;;;;;4934125;29;20505;-76
2021/11/08 02:58:34;;;;;;;3.88;3.50;;;;;;;;;;4917214;29;20082;-76
2021/11/08 03:01:00;;;;;;;3.47;3.28;;;;;;;;;;4934288;29;20047;-77
2021/11/08 03:03:35;;;;;;;3.63;3.15;;;;;;;;;;4934311;29;20050;-77
2021/11/08 03:06:07;;;;;;;3.08;2.88;;;;;;;;;;4934068;29;20044;-78
2021/11/08 03:08:33;;;;;;;3.38;3.08;;;;;;;;;;4916923;29;20044;-76
2021/11/08 03:10:59;;;;;;;2.95;2.85;;;;;;;;;;4932721;29;20040;-77
2021/11/08 03:13:26;;;;;;;3.00;2.83;;;;;;;;;;4933888;29;20070;-78
2021/11/08 03:16:09;;;;;;;3.58;3.30;;;;;;;;;;4932591;29;20189;-78
2021/11/08 03:18:40;;;;;;;3.38;3.08;;;;;;;;;;4932245;29;20153;-76
2021/11/08 03:21:16;;;;;;;2.80;2.65;;;;;;;;;;4933796;29;20050;-75
2021/11/08 03:23:46;;;;;;;5.85;3.35;;;;;;;;;;4932601;29;20054;-77
2021/11/08 03:26:34;;;;;;;3.60;3.30;;;;;;;;;;4933820;29;20040;-75
2021/11/08 03:29:00;;;;;;;3.92;3.63;;;;;;;;;;4933913;29;20051;-77
2021/11/08 03:31:28;;;;;;;3.67;3.35;;;;;;;;;;4933714;29;20036;-76
2021/11/08 03:33:53;;;;;;;7.28;3.75;;;;;;;;;;4932329;29;20127;-77
2021/11/08 03:36:19;;;;;;;5.10;4.20;;;;;;;;;;4934430;29;20079;-76
2021/11/08 03:38:45;;;;;;;3.75;3.45;;;;;;;;;;4937522;29;20197;-78
2021/11/08 03:41:10;;;;;;;4.20;3.65;;;;;;;;;;4937704;29;20042;-77
2021/11/08 03:43:37;;;;;;;3.33;3.13;;;;;;;;;;4937759;29;20564;-78
2021/11/08 03:46:03;;;;;;;4.43;3.42;;;;;;;;;;4937603;29;20517;-75
2021/11/08 03:48:29;;;;;;;3.88;3.58;;;;;;;;;;4937250;29;20110;-75
2021/11/08 03:50:55;;;;;;;4.32;2.80;;;;;;;;;;4937566;29;20405;-77
2021/11/08 03:53:21;;;;;;;3.75;3.42;;;;;;;;;;4937969;29;20043;-76
2021/11/08 03:55:47;;;;;;;4.63;3.70;;;;;;;;;;4937117;29;20419;-75
2021/11/08 03:58:12;;;;;;;4.40;3.63;;;;;;;;;;4937364;29;20040;-77
2021/11/08 04:00:40;;;;;;;3.42;2.95;;;;;;;;;;4937142;29;20071;-77
2021/11/08 04:03:09;;;;;;;3.38;3.15;;;;;;;;;;4936792;29;20054;-77
2021/11/08 04:05:37;;;;;;;3.55;3.35;;;;;;;;;;4935727;29;20502;-75
2021/11/08 04:08:09;;;;;;;3.72;3.42;;;;;;;;;;4937162;29;20079;-77
2021/11/08 04:10:36;;;;;;;4.25;3.95;;;;;;;;;;4936962;29;20051;-76
2021/11/08 04:13:06;;;;;;;5.03;3.70;;;;;;;;;;4936726;29;20047;-77
2021/11/08 04:15:42;;;;;;;6.95;4.55;;;;;;;;;;4936288;29;20501;-75
2021/11/08 04:18:14;;;;;;;4.68;4.10;;;;;;;;;;4936797;29;20130;-76
2021/11/08 04:20:42;;;;;;;3.90;3.63;;;;;;;;;;4937141;29;20046;-76
2021/11/08 04:23:09;;;;;;;5.60;3.05;;;;;;;;;;4920015;29;20510;-76
2021/11/08 04:25:34;;;;;;;3.72;3.45;;;;;;;;;;4936570;29;20051;-77
2021/11/08 04:28:00;;;;;;;3.75;3.25;;;;;;;;;;4936725;29;20044;-76
2021/11/08 04:30:27;;;;;;;3.88;3.60;;;;;;;;;;4935561;29;20401;-77
2021/11/08 04:51:48;;;;;;;3.47;3.15;;;;;;;;;;4936259;29;20050;-77
2021/11/08 05:21:34;;;;;;;4.45;3.75;;;;;;;;;;4935552;29;20204;-76
2021/11/08 05:30:07;;;;;;;3.85;3.55;;;;;;;;;;4914752;29;20038;-78
2021/11/08 05:32:36;;;;;;;4.93;3.58;;;;;;;;;;4912005;29;20047;-78
2021/11/08 05:35:03;;;;;;;13.68;5.65;;;;;;;;;;4935487;29;20047;-78
2021/11/08 05:37:29;;;;;;;12.32;4.07;;;;;;;;;;4933996;29;20058;-78
2021/11/08 05:39:58;;;;;;;5.70;5.32;;;;;;;;;;4935243;29;20515;-78
2021/11/08 05:42:24;;;;;;;5.10;4.70;;;;;;;;;;4933963;29;20039;-77
2021/11/08 05:44:51;;;;;;;4.13;3.72;;;;;;;;;;4935465;29;20047;-77
2021/11/08 05:47:17;;;;;;;3.35;3.13;;;;;;;;;;4935029;29;20563;-77
2021/11/08 05:49:45;;;;;;;4.05;3.75;;;;;;;;;;4935202;29;20052;-77
2021/11/08 05:52:12;;;;;;;5.60;3.22;;;;;;;;;;4933813;29;20107;-78
2021/11/08 05:54:38;;;;;;;3.85;3.45;;;;;;;;;;4935286;29;20055;-78
2021/11/08 06:51:16;;;;;;;5.30;4.22;;;;;;;;;;4934372;29;20138;-77
2021/11/08 06:53:45;;;;;;;9.68;6.00;;;;;;;;;;4932871;29;20055;-75
2021/11/08 06:56:11;;;;;;;10.10;5.32;;;;;;;;;;4932373;29;20058;-77
2021/11/08 06:58:38;;;;;;;7.97;5.63;;;;;;;;;;4933875;29;20055;-77
2021/11/08 07:01:04;;;;;;;10.57;6.25;;;;;;;;;;4932578;29;20054;-76
2021/11/08 07:03:29;;;;;;;6.68;4.38;;;;;;;;;;4934040;29;20413;-75
2021/11/08 07:05:54;;;;;;;8.60;5.63;;;;;;;;;;4933829;29;20050;-77
2021/11/08 07:08:20;;;;;;;9.05;5.20;;;;;;;;;;4934128;29;20535;-76
2021/11/08 07:10:46;;;;;;;7.70;5.75;;;;;;;;;;4934252;29;20048;-77
2021/11/08 07:13:11;;;;;;;8.32;4.88;;;;;;;;;;4933786;29;20054;-77
2021/11/08 07:15:37;;;;;;;7.75;4.53;;;;;;;;;;4933482;29;20087;-76
2021/11/08 07:18:02;;;;;;;12.48;5.28;;;;;;;;;;4933912;29;20057;-75
2021/11/08 07:20:28;;;;;;;9.15;4.22;;;;;;;;;;4916931;29;20412;-77
2021/11/08 07:22:54;;;;;;;7.18;4.78;;;;;;;;;;4933715;29;20043;-78
2021/11/08 07:25:20;;;;;;;6.18;4.22;;;;;;;;;;4933854;29;20046;-76
2021/11/08 07:27:46;;;;;;;7.65;2.53;;;;;;;;;;4934153;29;20218;-76
2021/11/08 07:30:13;;;;;;;8.63;4.72;;;;;;;;;;4933498;29;20509;-75
2021/11/08 07:32:39;;;;;;;7.80;4.72;;;;;;;;;;4933584;29;20044;-76
2021/11/08 07:35:06;;;;;;;5.60;4.03;;;;;;;;;;4933652;29;20058;-75
2021/11/08 07:37:31;;;;;;;5.47;4.32;;;;;;;;;;4933819;29;20051;-76
2021/11/08 07:39:57;;;;;;;8.00;4.25;;;;;;;;;;4933471;29;20432;-76
2021/11/08 07:42:23;;;;;;;8.75;4.30;;;;;;;;;;4933616;29;20040;-76
2021/11/08 07:44:49;;;;;;;7.78;5.47;;;;;;;;;;4933684;29;20055;-76
2021/11/08 07:47:15;;;;;;;10.50;5.05;;;;;;;;;;4933693;29;20417;-77
2021/11/08 07:49:40;;;;;;;6.78;4.70;;;;;;;;;;4932245;29;20044;-76
2021/11/08 07:52:08;;;;;;;10.25;5.07;;;;;;;;;;4933400;29;20043;-77
2021/11/08 07:54:35;;;;;;;10.40;5.18;;;;;;;;;;4932366;29;20051;-76
2021/11/08 07:57:01;;;;;;;7.03;4.82;;;;;;;;;;4933803;29;20095;-75
2021/11/08 07:59:26;;;;;;;8.25;5.15;;;;;;;;;;4933444;29;20052;-77
2021/11/08 08:01:52;;;;;;;8.75;5.47;;;;;;;;;;4933619;29;20494;-77
2021/11/08 08:04:17;;;;;;;7.60;4.82;;;;;;;;;;4933977;29;20177;-76
2021/11/08 08:06:44;;;;;;;5.82;4.38;;;;;;;;;;4933662;29;20474;-77
2021/11/08 08:09:10;;;;;;;8.20;4.55;;;;;;;;;;4933457;29;20078;-77
2021/11/08 08:11:36;;;;;;;7.72;5.10;;;;;;;;;;4932504;29;20075;-76
2021/11/08 08:14:02;;;;;;;7.72;4.75;;;;;;;;;;4933484;29;20070;-77
2021/11/08 08:16:30;;;;;;;7.88;5.20;;;;;;;;;;4933447;29;20071;-77
2021/11/08 08:18:55;;;;;;;5.63;4.10;;;;;;;;;;4933598;29;20071;-77
2021/11/08 08:21:21;;;;;;;7.20;6.50;;;;;;;;;;4933822;29;20449;-77
2021/11/08 08:23:53;;;;;;;4.30;3.90;;;;;;;;;;4934799;29;20044;-76
2021/11/08 08:26:24;;;;;;;4.38;3.97;;;;;;;;;;4937139;29;20067;-76
2021/11/08 08:28:50;;;;;;;5.47;4.25;;;;;;;;;;4937086;29;20148;-77
2021/11/08 08:31:15;;;;;;;5.93;5.10;;;;;;;;;;4936996;29;20455;-77
2021/11/08 08:33:41;;;;;;;4.63;4.28;;;;;;;;;;4936641;29;20043;-77
2021/11/08 08:36:06;;;;;;;7.78;5.40;;;;;;;;;;4936512;29;20051;-78
2021/11/08 08:38:32;;;;;;;4.35;4.05;;;;;;;;;;4936465;29;20063;-76
2021/11/08 08:40:58;;;;;;;6.25;4.53;;;;;;;;;;4936395;29;20040;-78
2021/11/08 08:43:26;;;;;;;7.13;4.68;;;;;;;;;;4936605;29;20180;-77
2021/11/08 08:45:52;;;;;;;4.32;3.92;;;;;;;;;;4919707;29;20497;-77
2021/11/08 08:48:19;;;;;;;6.68;4.65;;;;;;;;;;4935533;29;20051;-77
2021/11/08 08:50:45;;;;;;;6.18;4.18;;;;;;;;;;4936456;29;20052;-77
2021/11/08 08:53:11;;;;;;;8.18;4.93;;;;;;;;;;4936336;29;20149;-76
2021/11/08 08:55:40;;;;;;;6.90;4.05;;;;;;;;;;4936584;29;20044;-76
2021/11/08 08:58:06;;;;;;;8.40;4.50;;;;;;;;;;4936350;29;20074;-77
2021/11/08 09:00:34;;;;;;;4.28;2.78;;;;;;;;;;4936346;29;20597;-75
2021/11/08 09:03:00;;;;;;;6.90;4.25;;;;;;;;;;4936191;29;20047;-75
2021/11/08 09:05:26;;;;;;;4.90;3.80;;;;;;;;;;4936530;29;20051;-77
2021/11/08 09:07:54;;;;;;;6.00;5.50;;;;;;;;;;4936121;29;20466;-75
2021/11/08 09:10:21;;;;;;;3.45;3.15;;;;;;;;;;4935011;29;20421;-74
2021/11/08 09:12:47;;;;;;;5.13;3.70;;;;;;;;;;4936241;29;20390;-74
2021/11/08 09:15:12;;;;;;;4.78;3.92;;;;;;;;;;4936179;29;20051;-76
2021/11/08 09:17:38;;;;;;;4.95;3.58;;;;;;;;;;4936001;29;20044;-75
2021/11/08 09:20:04;;;;;;;6.55;3.78;;;;;;;;;;4936063;29;20075;-75
2021/11/08 09:22:30;;;;;;;4.97;4.57;;;;;;;;;;4936063;29;20613;-75
2021/11/08 09:24:55;;;;;;;6.13;4.15;;;;;;;;;;4935865;29;20156;-76
2021/11/08 09:27:21;;;;;;;3.50;3.22;;;;;;;;;;4936062;29;20043;-76
2021/11/08 09:29:47;;;;;;;3.80;3.50;;;;;;;;;;4934615;29;20082;-74
2021/11/08 09:32:12;;;;;;;4.10;3.80;;;;;;;;;;4935754;29;20055;-76
2021/11/08 09:34:46;;;;;;;2.88;2.67;;;;;;;;;;4934672;29;20413;-75
2021/11/08 09:37:15;;;;;;;4.55;3.97;;;;;;;;;;4935670;29;20075;-75
2021/11/08 09:39:42;;;;;;;23.63;6.30;;;;;;;;;;4935246;29;20047;-77
2021/11/08 09:42:11;;;;;;;4.50;4.10;;;;;;;;;;4935515;29;20054;-76
2021/11/08 09:44:39;;;;;;;4.45;4.18;;;;;;;;;;4935070;29;20127;-76
2021/11/08 09:47:04;;;;;;;3.80;3.53;;;;;;;;;;4935329;29;20067;-76
2021/11/08 09:49:30;;;;;;;3.53;3.25;;;;;;;;;;4935391;29;20106;-76
2021/11/08 09:51:57;;;;;;;4.07;3.45;;;;;;;;;;4935378;29;20146;-78
2021/11/08 09:54:27;;;;;;;4.57;4.28;;;;;;;;;;4935334;29;20043;-76
2021/11/08 09:56:56;;;;;;;3.72;3.53;;;;;;;;;;4935296;29;20039;-77
2021/11/08 09:59:21;;;;;;;5.50;5.07;;;;;;;;;;4935382;29;20450;-75
2021/11/08 10:01:51;;;;;;;4.22;3.92;;;;;;;;;;4935277;29;20517;-75
2021/11/08 10:04:18;;;;;;;3.97;3.67;;;;;;;;;;4935270;29;20048;-76
2021/11/08 10:06:45;;;;;;;3.20;2.92;;;;;;;;;;4934834;29;20043;-75
2021/11/08 10:09:13;;;;;;;3.75;3.45;;;;;;;;;;4935122;29;20067;-76
2021/11/08 10:11:40;;;;;;;3.58;3.35;;;;;;;;;;4933839;29;20051;-77
2021/11/08 10:14:08;;;;;;;4.10;3.70;;;;;;;;;;4934461;29;20051;-77
2021/11/08 10:16:36;;;;;;;3.88;3.67;;;;;;;;;;4934663;29;20083;-77
2021/11/08 10:19:05;;;;;;;4.00;3.70;;;;;;;;;;4935199;29;20047;-76
2021/11/08 10:21:37;;;;;;;6.07;3.85;;;;;;;;;;4934813;29;20039;-77
2021/11/08 10:24:07;;;;;;;5.13;4.45;;;;;;;;;;4933867;29;20050;-78
2021/11/08 10:26:36;;;;;;;5.45;5.05;;;;;;;;;;4933053;29;20449;-77
2021/11/08 10:29:05;;;;;;;3.88;3.55;;;;;;;;;;4934973;29;20402;-77
2021/11/08 10:31:35;;;;;;;6.75;4.18;;;;;;;;;;4934614;29;20048;-77
2021/11/08 10:34:05;;;;;;;4.38;3.42;;;;;;;;;;4934382;29;20043;-76
2021/11/08 10:36:31;;;;;;;4.88;3.42;;;;;;;;;;4934656;29;20082;-77
2021/11/08 10:38:59;;;;;;;3.60;3.38;;;;;;;;;;4934275;29;20079;-77
2021/11/08 10:41:34;;;;;;;4.38;4.03;;;;;;;;;;4933623;29;20066;-77
2021/11/08 10:44:04;;;;;;;4.43;4.03;;;;;;;;;;4932972;29;20188;-76
2021/11/08 10:46:36;;;;;;;6.22;3.90;;;;;;;;;;4933162;29;20035;-77
2021/11/08 10:49:06;;;;;;;4.07;3.78;;;;;;;;;;4938100;29;20058;-76
2021/11/08 10:51:32;;;;;;;9.18;5.30;;;;;;;;;;4952611;29;20102;-77
2021/11/08 10:54:05;;;;;;;5.45;4.65;;;;;;;;;;4953265;29;20051;-76
2021/11/08 10:56:38;;;;;;;6.80;5.28;;;;;;;;;;4950326;29;20078;-77
2021/11/08 10:59:09;;;;;;;5.63;4.95;;;;;;;;;;4931018;29;20098;-77
2021/11/08 11:01:42;;;;;;;4.72;3.45;;;;;;;;;;4940871;29;20039;-77
2021/11/08 11:04:07;;;;;;;4.57;4.05;;;;;;;;;;4952589;29;20074;-76
2021/11/08 11:06:40;;;;;;;4.47;4.07;;;;;;;;;;4952415;29;20091;-77
2021/11/08 11:09:16;;;;;;;4.68;3.85;;;;;;;;;;4940537;29;20061;-75
2021/11/08 11:11:43;;;;;;;5.60;4.00;;;;;;;;;;4933789;29;20044;-77
2021/11/08 11:14:09;;;;;;;7.18;4.30;;;;;;;;;;4932872;29;20082;-77
2021/11/08 11:16:34;;;;;;;6.30;5.88;;;;;;;;;;4932776;29;20442;-77
2021/11/08 11:19:03;;;;;;;4.65;4.20;;;;;;;;;;4930524;29;20052;-79
2021/11/08 11:21:29;;;;;;;4.00;3.70;;;;;;;;;;4916116;29;20047;-77
2021/11/08 11:24:01;;;;;;;6.53;4.95;;;;;;;;;;4933810;29;20043;-78
2021/11/08 11:26:33;;;;;;;3.90;3.58;;;;;;;;;;4932161;29;20071;-79
2021/11/08 11:28:59;;;;;;;4.82;3.67;;;;;;;;;;4915730;29;20046;-77
2021/11/08 11:31:28;;;;;;;4.43;3.95;;;;;;;;;;4933415;29;20240;-78
2021/11/08 11:33:58;;;;;;;7.95;4.65;;;;;;;;;;4933293;29;20051;-77
2021/11/08 11:36:27;;;;;;;7.00;4.47;;;;;;;;;;4932646;29;20134;-74
2021/11/08 11:38:56;;;;;;;4.68;3.67;;;;;;;;;;4938996;29;20414;-74
2021/11/08 11:41:33;;;;;;;9.00;5.50;;;;;;;;;;4930883;29;20048;-75
2021/11/08 11:44:04;;;;;;;3.03;2.92;;;;;;;;;;4932891;29;20123;-75
2021/11/08 11:46:33;;;;;;;6.38;4.53;;;;;;;;;;4933440;29;20099;-76
2021/11/08 11:49:03;;;;;;;6.55;4.10;;;;;;;;;;4932923;29;20071;-76
2021/11/08 11:51:31;;;;;;;5.88;3.65;;;;;;;;;;4931440;29;20091;-76
2021/11/08 11:53:58;;;;;;;6.70;4.00;;;;;;;;;;4933432;29;20048;-76
2021/11/08 11:56:26;;;;;;;14.60;4.13;;;;;;;;;;4933098;29;20047;-75
2021/11/08 11:58:52;;;;;;;6.20;4.35;;;;;;;;;;4918526;29;20044;-76
2021/11/08 12:01:20;;;;;;;3.47;3.17;;;;;;;;;;4937448;29;20043;-76
2021/11/08 12:03:46;;;;;;;4.35;3.60;;;;;;;;;;4935839;29;20181;-76
2021/11/08 12:06:16;;;;;;;9.57;4.22;;;;;;;;;;4935415;29;20051;-77
2021/11/08 12:08:42;;;;;;;;;;;;;;;;;;4937266;29;20476;-75
2021/11/08 12:11:09;;;;;;;4.72;4.22;;;;;;;;;;4935883;29;19919;-79
2021/11/08 12:13:40;;;;;;;4.50;3.47;;;;;;;;;;4936275;29;20051;-78
2021/11/08 12:16:13;;;;;;;3.53;3.13;;;;;;;;;;4919294;29;20047;-78
2021/11/08 12:18:39;;;;;;;6.55;3.45;;;;;;;;;;4919371;29;20164;-77
2021/11/08 12:21:05;;;;;;;3.00;2.83;;;;;;;;;;4936332;29;20519;-78
2021/11/08 12:23:35;;;;;;;3.35;3.05;;;;;;;;;;4936683;29;20520;-76
2021/11/08 12:26:00;;;;;;;;;;;;;;;;;;4933851;29;20122;-78
2021/11/08 12:28:29;;;;;;;6.00;3.22;;;;;;;;;;4918946;29;20017;-77
2021/11/08 12:31:07;;;;;;;9.93;3.58;;;;;;;;;;4935559;29;20520;-79
2021/11/08 12:33:37;;;;;;;4.28;3.65;;;;;;;;;;4934844;29;20129;-79
2021/11/08 12:36:05;;;;;;;6.93;4.43;;;;;;;;;;4935215;29;20051;-77
2021/11/08 12:38:34;;;;;;;6.30;3.70;;;;;;;;;;4945085;29;20055;-78
2021/11/08 12:41:25;;;;;;;5.28;4.38;;;;;;;;;;4953527;29;20058;-77
2021/11/08 12:43:56;;;;;;;3.95;3.35;;;;;;;;;;4954169;29;20102;-78
2021/11/08 12:46:26;;;;;;;4.47;3.15;;;;;;;;;;4953989;29;20086;-78
2021/11/08 12:48:52;;;;;;;5.47;5.00;;;;;;;;;;4952193;29;20444;-78
2021/11/08 12:51:22;;;;;;;5.22;3.58;;;;;;;;;;4954046;29;20047;-80
2021/11/08 12:54:01;;;;;;;5.32;3.40;;;;;;;;;;4954405;29;20497;-79
2021/11/08 12:56:30;;;;;;;5.85;5.45;;;;;;;;;;4953673;29;20470;-77
2021/11/08 12:58:57;;;;;;;4.13;3.50;;;;;;;;;;4953963;29;20077;-77
2021/11/08 13:02:10;;;;;;;4.25;3.17;;;;;;;;;;4936481;29;20039;-77
2021/11/08 13:04:46;;;;;;;3.83;3.55;;;;;;;;;;4936036;29;20047;-77
2021/11/08 13:07:14;;;;;;;3.95;3.22;;;;;;;;;;4953533;29;20404;-76
2021/11/08 13:09:52;;;;;;;6.65;3.60;;;;;;;;;;4951471;28;20043;-78
2021/11/08 13:12:32;;;;;;;5.57;5.18;;;;;;;;;;4953529;29;20434;-77
2021/11/08 13:15:06;;;;;;;4.40;4.00;;;;;;;;;;4936428;29;20505;-77
2021/11/08 13:17:43;;;;;;;3.40;3.20;;;;;;;;;;4936309;29;20530;-79
2021/11/08 13:20:09;;;;;;;3.85;2.10;;;;;;;;;;4953088;29;20043;-78
2021/11/08 13:22:39;;;;;;;4.43;3.17;;;;;;;;;;4952388;29;20408;-77
2021/11/08 13:25:10;;;;;;;6.32;3.92;;;;;;;;;;4949834;29;20046;-78
2021/11/08 13:27:44;;;;;;;5.00;3.47;;;;;;;;;;4933640;29;20135;-77
2021/11/08 13:30:10;;;;;;;5.75;4.97;;;;;;;;;;4934262;29;20568;-77
2021/11/08 13:32:37;;;;;;;3.55;3.25;;;;;;;;;;4932449;29;20047;-77
2021/11/08 13:35:26;;;;;;;4.75;4.15;;;;;;;;;;4934367;29;20039;-77
2021/11/08 13:38:09;;;;;;;7.38;4.32;;;;;;;;;;4940161;29;20047;-78
2021/11/08 13:40:36;;;;;;;;;;;;;;;;;;4954361;29;20055;-78
2021/11/08 13:43:21;;;;;;;2.92;2.72;;;;;;;;;;4952373;29;20336;-77
2021/11/08 13:45:56;;;;;;;3.75;3.55;;;;;;;;;;4935001;29;20083;-80
2021/11/08 13:48:44;;;;;;;4.10;3.80;;;;;;;;;;4934954;29;20413;-78
2021/11/08 13:51:32;;;;;;;3.55;3.38;;;;;;;;;;4935165;29;20044;-77
2021/11/08 13:53:58;;;;;;;7.15;3.63;;;;;;;;;;4932283;29;20110;-78
2021/11/08 13:56:32;;;;;;;3.85;3.33;;;;;;;;;;4934824;29;20051;-79
2021/11/08 13:59:01;;;;;;;4.32;3.92;;;;;;;;;;4934959;29;20048;-78
2021/11/08 14:01:39;;;;;;;8.45;3.10;;;;;;;;;;4934758;29;20123;-77
2021/11/08 14:04:06;;;;;;;4.82;4.03;;;;;;;;;;4934756;29;20516;-75
2021/11/08 14:06:40;;;;;;;3.63;3.35;;;;;;;;;;4934869;29;20039;-79
2021/11/08 14:09:12;;;;;;;4.65;4.18;;;;;;;;;;4934447;29;20541;-80
2021/11/08 14:11:41;;;;;;;6.20;3.80;;;;;;;;;;4933196;29;20047;-79
2021/11/08 14:14:19;;;;;;;3.78;3.50;;;;;;;;;;4934875;29;20047;-79
2021/11/08 14:16:47;;;;;;;3.90;3.47;;;;;;;;;;4936428;29;20054;-79
2021/11/08 14:19:15;;;;;;;5.15;3.45;;;;;;;;;;4935074;29;20126;-79
2021/11/08 14:21:42;;;;;;;4.03;3.67;;;;;;;;;;4936507;29;20035;-79
2021/11/08 14:24:07;;;;;;;4.22;2.25;;;;;;;;;;4937678;29;20404;-79
2021/11/08 14:26:36;;;;;;;3.60;3.25;;;;;;;;;;4936518;29;20075;-78
2021/11/08 14:29:16;;;;;;;3.17;3.05;;;;;;;;;;4934901;29;20067;-80
2021/11/08 14:31:43;;;;;;;3.63;3.35;;;;;;;;;;4916897;29;20051;-79
2021/11/08 14:34:13;;;;;;;7.07;4.15;;;;;;;;;;4933876;29;20751;-79
2021/11/08 14:36:44;;;;;;;8.65;3.70;;;;;;;;;;4926823;29;20044;-80
2021/11/08 14:39:17;;;;;;;4.22;3.78;;;;;;;;;;4934208;29;20031;-78
2021/11/08 14:42:09;;;;;;;6.38;3.50;;;;;;;;;;4933415;29;20056;-81
2021/11/08 14:44:46;;;;;;;3.30;3.08;;;;;;;;;;4930639;29;20047;-79
2021/11/08 14:47:32;;;;;;;3.45;3.17;;;;;;;;;;4939265;29;20059;-79
2021/11/08 14:50:02;;;;;;;5.78;3.80;;;;;;;;;;4940516;29;20051;-80
2021/11/08 14:52:29;;;;;;;;;;;;;;;;;;4953807;28;20071;-79
2021/11/08 14:54:54;;;;;;;4.15;3.85;;;;;;;;;;4953235;28;19922;-80
2021/11/08 14:57:19;;;;;;;3.92;3.67;;;;;;;;;;4951638;28;20529;-81
2021/11/08 14:59:53;;;;;;;4.93;4.68;;;;;;;;;;4951389;29;20082;-79
2021/11/08 15:02:19;;;;;;;4.65;3.58;;;;;;;;;;4952249;28;20047;-79
2021/11/08 15:04:46;;;;;;;4.55;2.97;;;;;;;;;;4953458;28;20042;-79
2021/11/08 15:07:12;;;;;;;7.38;3.42;;;;;;;;;;4952930;28;20051;-79
2021/11/08 15:09:50;;;;;;;6.80;3.50;;;;;;;;;;4952298;28;20043;-78
2021/11/08 15:12:22;;;;;;;3.92;2.35;;;;;;;;;;4952993;28;20408;-80
2021/11/08 15:14:54;;;;;;;4.03;3.72;;;;;;;;;;4952402;28;20054;-80
2021/11/08 15:17:51;;;;;;;5.60;4.93;;;;;;;;;;4951366;28;20516;-81
2021/11/08 15:20:23;;;;;;;2.63;2.42;;;;;;;;;;4931660;28;20614;-83
2021/11/08 15:23:07;;;;;;;4.57;3.33;;;;;;;;;;4915522;29;20055;-81
2021/11/08 15:25:53;;;;;;;6.07;3.65;;;;;;;;;;4913885;29;20036;-81
2021/11/08 15:28:37;;;;;;;3.42;3.22;;;;;;;;;;4896180;29;20521;-80
2021/11/08 15:31:04;;;;;;;3.53;2.90;;;;;;;;;;4897909;29;20044;-80
2021/11/08 15:33:44;;;;;;;9.85;4.40;;;;;;;;;;4914041;29;20052;-79
2021/11/08 15:36:24;;;;;;;6.57;3.70;;;;;;;;;;4882370;29;20166;-80
2021/11/08 15:38:56;;;;;;;8.00;4.28;;;;;;;;;;4914898;29;20119;-82
2021/11/08 15:41:23;;;;;;;10.25;3.92;;;;;;;;;;4914412;29;20068;-82
2021/11/08 15:43:49;;;;;;;13.40;4.10;;;;;;;;;;4912774;29;20128;-80
2021/11/08 15:46:15;;;;;;;5.30;4.57;;;;;;;;;;4914098;29;20517;-82
2021/11/08 15:48:46;;;;;;;3.88;3.53;;;;;;;;;;4897794;29;20055;-80
2021/11/08 15:51:12;;;;;;;6.60;3.90;;;;;;;;;;4914822;29;20052;-81
2021/11/08 15:53:38;;;;;;;4.70;4.35;;;;;;;;;;4914319;29;20056;-81
2021/11/08 15:56:04;;;;;;;3.70;3.40;;;;;;;;;;4914602;29;20418;-78
2021/11/08 15:58:30;;;;;;;5.68;3.75;;;;;;;;;;4913595;29;20044;-79
2021/11/08 16:00:56;;;;;;;4.65;4.25;;;;;;;;;;4913847;29;20044;-79
2021/11/08 16:03:22;;;;;;;8.00;2.90;;;;;;;;;;4914262;29;20615;-78
2021/11/08 16:05:48;;;;;;;4.07;3.63;;;;;;;;;;4912096;29;20048;-78
2021/11/08 16:08:14;;;;;;;3.85;3.55;;;;;;;;;;4914090;29;20490;-81
2021/11/08 16:10:40;;;;;;;3.85;3.58;;;;;;;;;;4914560;29;20075;-80
2021/11/08 16:13:12;;;;;;;4.25;3.72;;;;;;;;;;4914360;29;20044;-81
2021/11/08 16:15:39;;;;;;;7.05;4.05;;;;;;;;;;4896962;29;20044;-80
2021/11/08 16:18:04;;;;;;;7.70;3.67;;;;;;;;;;4913955;29;20504;-81
2021/11/08 16:20:30;;;;;;;9.95;3.88;;;;;;;;;;4913002;29;20135;-81
2021/11/08 16:22:55;;;;;;;5.47;3.75;;;;;;;;;;4914841;29;20040;-81
2021/11/08 16:25:22;;;;;;;8.52;4.43;;;;;;;;;;4939084;28;20047;-79
2021/11/08 16:27:48;;;;;;;5.43;3.83;;;;;;;;;;4931511;29;20051;-78
2021/11/08 16:30:17;;;;;;;8.07;3.80;;;;;;;;;;4932516;29;20048;-78
2021/11/08 16:33:43;;;;;;;4.47;3.83;;;;;;;;;;4915738;29;20036;-79
2021/11/08 16:36:14;;;;;;;6.63;3.50;;;;;;;;;;4858920;29;20053;-79
2021/11/08 16:38:41;;;;;;;5.18;3.72;;;;;;;;;;4874025;29;20813;-78
2021/11/08 16:41:09;;;;;;;3.90;3.30;;;;;;;;;;4890133;29;20052;-78
2021/11/08 16:43:34;;;;;;;7.63;4.82;;;;;;;;;;4914534;29;20084;-79
2021/11/08 16:46:03;;;;;;;4.10;3.80;;;;;;;;;;4929796;29;20139;-80